createdAt,value
2023-01-31T00:00:08.019Z,98115.66
2023-01-31T00:03:14.478Z,98114.38
2023-01-31T00:06:22.659Z,98117.57
2023-01-31T00:09:28.946Z,98115.52
2023-01-31T00:12:35.188Z,98114.98
2023-01-31T00:15:39.901Z,98120.66
2023-01-31T00:18:47.081Z,98131.94
2023-01-31T00:21:54.647Z,98131.04
2023-01-31T00:25:00.946Z,98136.12
2023-01-31T00:28:07.413Z,98134.79
2023-01-31T00:31:15.298Z,98136.66
2023-01-31T00:34:21.892Z,98139.50
2023-01-31T00:37:28.239Z,98145.02
2023-01-31T00:40:32.808Z,98145.09
2023-01-31T00:43:39.080Z,98148.64
2023-01-31T00:46:45.348Z,98148.73
2023-01-31T00:49:49.945Z,98149.42
2023-01-31T00:52:56.220Z,98159.11
2023-01-31T00:56:08.487Z,98152.64
2023-01-31T00:59:14.911Z,98155.66
2023-01-31T01:02:19.485Z,98178.15
2023-01-31T01:05:25.826Z,98179.60
2023-01-31T01:08:31.228Z,98163.70
2023-01-31T01:11:37.891Z,98163.61
2023-01-31T01:14:44.143Z,98166.90
2023-01-31T01:17:51.001Z,98178.95
2023-01-31T01:20:58.736Z,98182.13
2023-01-31T01:24:05.124Z,98177.92
2023-01-31T01:27:09.779Z,98180.02
2023-01-31T01:30:16.661Z,98182.61
2023-01-31T01:33:22.811Z,98187.32
2023-01-31T01:36:29.315Z,98190.66
2023-01-31T01:39:35.596Z,98202.77
2023-01-31T01:42:42.439Z,98204.70
2023-01-31T01:45:49.095Z,98204.36
2023-01-31T01:48:59.607Z,98210.41
2023-01-31T01:52:11.623Z,98222.59
2023-01-31T01:55:24.253Z,98226.08
2023-01-31T01:58:34.812Z,98226.82
2023-01-31T02:01:41.390Z,98224.80
2023-01-31T02:04:50.628Z,98223.64
2023-01-31T02:07:57.415Z,98226.82
2023-01-31T02:11:08.921Z,98223.38
2023-01-31T02:14:15.340Z,98220.16
2023-01-31T02:17:20.437Z,98225.77
2023-01-31T02:20:48.187Z,98233.45
2023-01-31T02:24:15.019Z,98234.14
2023-01-31T02:27:40.162Z,98239.89
2023-01-31T02:31:21.965Z,98247.55
2023-01-31T02:34:39.705Z,98250.70
2023-01-31T02:38:00.478Z,98252.50
2023-01-31T02:41:17.256Z,98257.37
2023-01-31T02:44:49.686Z,98260.05
2023-01-31T02:48:08.041Z,98264.51
2023-01-31T02:51:20.991Z,98273.34
2023-01-31T02:54:49.563Z,98276.71
2023-01-31T02:57:58.747Z,98283.52
2023-01-31T03:01:07.007Z,98292.02
2023-01-31T03:04:15.033Z,98296.77
2023-01-31T03:07:27.003Z,98305.35
2023-01-31T03:11:01.008Z,98312.36
2023-01-31T03:14:17.058Z,98313.30
2023-01-31T03:17:33.974Z,98313.36
2023-01-31T03:20:45.404Z,98314.06
2023-01-31T03:23:56.183Z,98316.54
2023-01-31T03:27:04.791Z,98316.70
2023-01-31T03:30:15.227Z,98316.00
2023-01-31T03:33:26.882Z,98319.77
2023-01-31T03:36:40.627Z,98318.35
2023-01-31T03:39:55.161Z,98319.86
2023-01-31T03:43:08.148Z,98320.37
2023-01-31T03:46:21.702Z,98334.77
2023-01-31T03:49:31.232Z,98343.48
2023-01-31T03:52:42.044Z,98348.48
2023-01-31T03:55:53.507Z,98350.11
2023-01-31T03:59:04.904Z,98347.73
2023-01-31T04:02:15.476Z,98353.07
2023-01-31T04:05:24.208Z,98354.77
2023-01-31T04:08:32.367Z,98358.00
2023-01-31T04:11:41.948Z,98363.86
2023-01-31T04:14:48.119Z,98370.79
2023-01-31T04:17:54.360Z,98376.98
2023-01-31T04:21:00.623Z,98384.84
2023-01-31T04:24:05.497Z,98386.67
2023-01-31T04:27:12.268Z,98392.73
2023-01-31T04:30:19.227Z,98388.77
2023-01-31T04:33:25.722Z,98390.02
2023-01-31T04:36:32.089Z,98392.23
2023-01-31T04:39:36.741Z,98387.96
2023-01-31T04:42:43.003Z,98395.73
2023-01-31T04:45:49.111Z,98402.13
2023-01-31T04:48:55.428Z,98406.42
2023-01-31T04:51:59.932Z,98412.37
2023-01-31T04:55:06.883Z,98420.41
2023-01-31T04:58:13.137Z,98430.44
2023-01-31T05:01:19.524Z,98432.86
2023-01-31T05:04:25.626Z,98430.74
2023-01-31T05:07:31.974Z,98435.27
2023-01-31T05:10:37.347Z,98438.64
2023-01-31T05:13:45.565Z,98449.52
2023-01-31T05:16:51.795Z,98454.92
2023-01-31T05:19:58.534Z,98457.88
2023-01-31T05:23:05.409Z,98458.80
2023-01-31T05:26:11.440Z,98464.09
2023-01-31T05:29:17.724Z,98471.71
2023-01-31T05:32:24.481Z,98480.58
2023-01-31T05:35:31.285Z,98486.17
2023-01-31T05:38:37.638Z,98490.73
2023-01-31T05:41:43.980Z,98495.41
2023-01-31T05:44:48.492Z,98496.94
2023-01-31T05:47:55.915Z,98500.21
2023-01-31T05:51:02.299Z,98505.09
2023-01-31T05:54:07.194Z,98513.08
2023-01-31T05:57:14.511Z,98519.73
2023-01-31T06:00:22.063Z,98522.60
2023-01-31T06:03:28.591Z,98532.20
2023-01-31T06:06:34.938Z,98540.84
2023-01-31T06:09:40.664Z,98543.81
2023-01-31T06:12:46.896Z,98543.96
2023-01-31T06:15:52.382Z,98545.16
2023-01-31T06:18:59.081Z,98547.27
2023-01-31T06:22:05.711Z,98552.58
2023-01-31T06:25:13.004Z,98565.26
2023-01-31T06:28:19.385Z,98568.70
2023-01-31T06:31:24.013Z,98574.69
2023-01-31T06:34:30.547Z,98580.92
2023-01-31T06:37:37.120Z,98589.67
2023-01-31T06:40:43.338Z,98597.09
2023-01-31T06:43:50.040Z,98607.59
2023-01-31T06:46:56.288Z,98615.69
2023-01-31T06:50:02.760Z,98622.80
2023-01-31T06:53:09.079Z,98626.58
2023-01-31T06:56:13.604Z,98633.50
2023-01-31T06:59:19.958Z,98634.08
2023-01-31T07:02:25.038Z,98643.71
2023-01-31T07:05:31.525Z,98645.10
2023-01-31T07:08:38.282Z,98640.89
2023-01-31T07:11:44.637Z,98644.15
2023-01-31T07:14:49.289Z,98646.70
2023-01-31T07:18:00.893Z,98651.98
2023-01-31T07:21:07.547Z,98654.14
2023-01-31T07:24:14.253Z,98658.56
2023-01-31T07:27:20.841Z,98664.39
2023-01-31T07:30:27.372Z,98673.79
2023-01-31T07:33:33.615Z,98680.67
2023-01-31T07:36:39.830Z,98689.79
2023-01-31T07:39:46.059Z,98690.03
2023-01-31T07:42:52.296Z,98694.77
2023-01-31T07:45:58.626Z,98703.33
2023-01-31T07:49:03.199Z,98704.73
2023-01-31T07:52:09.589Z,98710.13
2023-01-31T07:55:15.883Z,98709.85
2023-01-31T07:58:20.369Z,98709.31
2023-01-31T08:01:48.273Z,98708.26
2023-01-31T08:04:55.993Z,98711.13
2023-01-31T08:08:11.415Z,98712.98
2023-01-31T08:11:17.663Z,98713.24
2023-01-31T08:14:25.705Z,98717.08
2023-01-31T08:17:33.228Z,98715.48
2023-01-31T08:20:39.537Z,98721.05
2023-01-31T08:23:44.972Z,98727.71
2023-01-31T08:26:51.252Z,98732.98
2023-01-31T08:29:56.660Z,98740.77
2023-01-31T08:33:03.552Z,98748.95
2023-01-31T08:36:17.809Z,98750.15
2023-01-31T08:39:24.014Z,98753.78
2023-01-31T08:42:30.623Z,98754.21
2023-01-31T08:45:37.431Z,98758.17
2023-01-31T08:48:43.767Z,98763.40
2023-01-31T08:51:48.323Z,98767.73
2023-01-31T08:54:55.008Z,98772.38
2023-01-31T08:58:02.073Z,98770.85
2023-01-31T09:01:10.238Z,98776.89
2023-01-31T09:04:16.510Z,98776.53
2023-01-31T09:07:22.808Z,98778.23
2023-01-31T09:10:27.296Z,98786.46
2023-01-31T09:13:35.385Z,98785.09
2023-01-31T09:16:43.575Z,98787.42
2023-01-31T09:19:50.803Z,98792.50
2023-01-31T09:22:57.062Z,98793.81
2023-01-31T09:26:03.679Z,98798.71
2023-01-31T09:29:09.970Z,98801.43
2023-01-31T09:32:16.283Z,98799.60
2023-01-31T09:35:22.094Z,98799.58
2023-01-31T09:38:28.721Z,98798.14
2023-01-31T09:41:38.508Z,98792.89
2023-01-31T09:44:48.009Z,98788.56
2023-01-31T09:47:56.387Z,98786.64
2023-01-31T09:51:03.843Z,98785.08
2023-01-31T09:54:18.805Z,98777.96
2023-01-31T09:57:37.016Z,98777.16
2023-01-31T10:00:49.216Z,98773.26
2023-01-31T10:04:19.102Z,98775.59
2023-01-31T10:07:30.829Z,98776.98
2023-01-31T10:10:40.915Z,98777.83
2023-01-31T10:13:53.138Z,98774.71
2023-01-31T10:17:07.201Z,98782.63
2023-01-31T10:20:22.678Z,98790.40
2023-01-31T10:23:35.603Z,98788.61
2023-01-31T10:26:46.284Z,98790.77
2023-01-31T10:29:55.375Z,98793.06
2023-01-31T10:33:10.713Z,98793.52
2023-01-31T10:36:26.665Z,98797.91
2023-01-31T10:39:35.488Z,98800.96
2023-01-31T10:42:46.399Z,98803.78
2023-01-31T10:45:52.610Z,98803.02
2023-01-31T10:48:59.010Z,98808.40
2023-01-31T10:52:28.644Z,98808.76
2023-01-31T10:55:49.099Z,98810.36
2023-01-31T10:58:56.733Z,98809.99
2023-01-31T11:02:03.283Z,98811.02
2023-01-31T11:05:17.544Z,98815.39
2023-01-31T11:08:35.252Z,98813.65
2023-01-31T11:11:56.951Z,98810.67
2023-01-31T11:15:18.985Z,98811.34
2023-01-31T11:18:33.281Z,98810.80
2023-01-31T11:21:40.007Z,98807.48
2023-01-31T11:24:51.353Z,98807.77
2023-01-31T11:28:02.210Z,98803.12
2023-01-31T11:31:18.847Z,98804.91
2023-01-31T11:34:27.387Z,98807.05
2023-01-31T11:37:35.435Z,98801.30
2023-01-31T11:40:42.889Z,98795.71
2023-01-31T11:43:49.046Z,98788.45
2023-01-31T11:46:58.096Z,98788.74
2023-01-31T11:50:05.689Z,98787.64
2023-01-31T11:53:21.341Z,98784.95
2023-01-31T11:56:32.188Z,98780.36
2023-01-31T11:59:38.519Z,98776.14
2023-01-31T12:02:43.307Z,98783.99
2023-01-31T12:05:53.403Z,98789.48
2023-01-31T12:09:01.215Z,98788.70
2023-01-31T12:12:25.453Z,98791.77
2023-01-31T12:15:33.073Z,98802.23
2023-01-31T12:19:10.346Z,98798.58
2023-01-31T12:22:22.134Z,98801.35
2023-01-31T12:25:37.321Z,98808.55
2023-01-31T12:29:05.379Z,98806.91
2023-01-31T12:32:27.836Z,98803.98
2023-01-31T12:35:46.096Z,98804.38
2023-01-31T12:39:15.658Z,98801.27
2023-01-31T12:42:41.776Z,98796.60
2023-01-31T12:45:58.482Z,98794.58
2023-01-31T12:49:29.275Z,98791.94
2023-01-31T12:52:44.351Z,98789.08
2023-01-31T12:56:00.156Z,98790.30
2023-01-31T12:59:19.920Z,98785.77
2023-01-31T13:02:40.058Z,98785.98
2023-01-31T13:05:51.341Z,98775.74
2023-01-31T13:09:08.096Z,98770.34
2023-01-31T13:12:19.965Z,98768.92
2023-01-31T13:15:35.578Z,98767.89
2023-01-31T13:18:43.215Z,98765.33
2023-01-31T13:21:53.226Z,98763.66
2023-01-31T13:25:08.240Z,98764.49
2023-01-31T13:28:21.390Z,98758.39
2023-01-31T13:31:29.815Z,98757.05
2023-01-31T13:34:42.608Z,98757.41
2023-01-31T13:37:51.880Z,98759.50
2023-01-31T13:41:00.524Z,98759.66
2023-01-31T13:44:07.183Z,98757.52
2023-01-31T13:47:20.093Z,98757.42
2023-01-31T13:50:36.416Z,98752.90
2023-01-31T13:53:48.889Z,98752.31
2023-01-31T13:56:57.059Z,98756.52
2023-01-31T14:00:08.179Z,98751.15
2023-01-31T14:03:16.327Z,98744.92
2023-01-31T14:06:23.063Z,98746.45
2023-01-31T14:09:31.085Z,98752.52
2023-01-31T14:12:39.868Z,98754.61
2023-01-31T14:15:54.158Z,98757.38
2023-01-31T14:19:00.558Z,98762.42
2023-01-31T14:22:15.528Z,98762.58
2023-01-31T14:25:44.632Z,98759.88
2023-01-31T14:28:51.686Z,98757.57
2023-01-31T14:31:59.924Z,98751.41
2023-01-31T14:35:24.368Z,98749.23
2023-01-31T14:38:45.788Z,98753.19
2023-01-31T14:42:16.272Z,98762.56
2023-01-31T14:45:49.433Z,98753.86
2023-01-31T14:49:30.717Z,98742.91
2023-01-31T14:52:48.865Z,98735.02
2023-01-31T14:56:14.108Z,98732.61
2023-01-31T14:59:31.094Z,98733.27
2023-01-31T15:03:01.727Z,98734.46
2023-01-31T15:06:14.952Z,98734.30
2023-01-31T15:09:41.109Z,98731.20
2023-01-31T15:13:00.017Z,98726.21
2023-01-31T15:16:09.695Z,98722.09
2023-01-31T15:19:20.286Z,98718.32
2023-01-31T15:22:27.651Z,98713.17
2023-01-31T15:25:41.247Z,98709.73
2023-01-31T15:28:48.374Z,98707.29
2023-01-31T15:31:58.387Z,98707.07
2023-01-31T15:35:15.822Z,98709.48
2023-01-31T15:38:30.089Z,98707.80
2023-01-31T15:41:46.435Z,98710.71
2023-01-31T15:44:52.633Z,98705.66
2023-01-31T15:48:03.686Z,98700.46
2023-01-31T15:51:15.264Z,98695.33
2023-01-31T15:54:21.500Z,98693.14
2023-01-31T15:57:29.944Z,98696.08
2023-01-31T16:00:38.412Z,98692.48
2023-01-31T16:03:50.399Z,98686.88
2023-01-31T16:06:57.380Z,98685.35
2023-01-31T16:10:03.768Z,98675.56
2023-01-31T16:13:08.039Z,98675.65
2023-01-31T16:16:15.184Z,98674.90
2023-01-31T16:19:26.861Z,98671.05
2023-01-31T16:22:34.066Z,98664.98
2023-01-31T16:25:40.280Z,98663.05
2023-01-31T16:28:53.807Z,98660.27
2023-01-31T16:32:00.156Z,98657.27
2023-01-31T16:35:05.914Z,98653.25
2023-01-31T16:38:26.490Z,98653.48
2023-01-31T16:41:46.898Z,98654.11
2023-01-31T16:44:54.167Z,98655.33
2023-01-31T16:48:20.618Z,98659.25
2023-01-31T16:51:44.972Z,98661.88
2023-01-31T16:54:55.289Z,98661.91
2023-01-31T16:58:01.493Z,98665.02
2023-01-31T17:01:17.039Z,98668.94
2023-01-31T17:04:24.448Z,98665.33
2023-01-31T17:07:34.989Z,98658.23
2023-01-31T17:10:42.769Z,98658.51
2023-01-31T17:13:49.040Z,98655.47
2023-01-31T17:16:55.913Z,98654.42
2023-01-31T17:20:02.215Z,98655.91
2023-01-31T17:23:06.935Z,98649.58
2023-01-31T17:26:19.130Z,98649.33
2023-01-31T17:29:26.138Z,98651.85
2023-01-31T17:32:33.232Z,98643.98
2023-01-31T17:35:41.664Z,98637.55
2023-01-31T17:38:47.888Z,98631.81
2023-01-31T17:41:54.807Z,98624.73
2023-01-31T17:45:01.124Z,98619.38
2023-01-31T17:48:07.586Z,98614.79
2023-01-31T17:51:14.620Z,98612.09
2023-01-31T17:54:20.992Z,98605.38
2023-01-31T17:57:25.430Z,98604.64
2023-01-31T18:00:31.750Z,98603.69
2023-01-31T18:03:36.301Z,98596.92
2023-01-31T18:06:42.604Z,98590.73
2023-01-31T18:09:47.149Z,98592.67
2023-01-31T18:12:53.431Z,98596.53
2023-01-31T18:16:08.060Z,98594.84
2023-01-31T18:19:14.591Z,98595.52
2023-01-31T18:22:20.825Z,98597.60
2023-01-31T18:25:27.088Z,98597.02
2023-01-31T18:28:31.739Z,98595.42
2023-01-31T18:31:38.024Z,98591.17
2023-01-31T18:34:42.630Z,98581.45
2023-01-31T18:37:49.816Z,98579.35
2023-01-31T18:40:56.465Z,98580.84
2023-01-31T18:44:02.740Z,98575.08
2023-01-31T18:47:07.357Z,98571.70
2023-01-31T18:50:14.476Z,98565.45
2023-01-31T18:53:20.669Z,98558.27
2023-01-31T18:56:26.895Z,98556.73
2023-01-31T18:59:34.140Z,98554.58
2023-01-31T19:02:40.353Z,98548.62
2023-01-31T19:05:47.106Z,98551.14
2023-01-31T19:08:55.170Z,98550.06
2023-01-31T19:12:01.529Z,98550.52
2023-01-31T19:15:07.054Z,98545.17
2023-01-31T19:18:14.853Z,98540.91
2023-01-31T19:21:23.199Z,98539.43
2023-01-31T19:24:29.659Z,98536.64
2023-01-31T19:27:36.062Z,98534.08
2023-01-31T19:30:40.817Z,98528.48
2023-01-31T19:33:50.745Z,98528.48
2023-01-31T19:36:57.142Z,98524.66
2023-01-31T19:40:02.138Z,98518.14
2023-01-31T19:43:08.451Z,98513.80
2023-01-31T19:46:13.225Z,98505.70
2023-01-31T19:49:19.549Z,98499.77
2023-01-31T19:52:25.800Z,98496.22
2023-01-31T19:55:33.552Z,98490.88
2023-01-31T19:58:40.230Z,98488.05
2023-01-31T20:01:46.543Z,98487.28
2023-01-31T20:04:51.995Z,98480.57
2023-01-31T20:07:58.276Z,98472.73
2023-01-31T20:11:06.064Z,98460.32
2023-01-31T20:14:12.336Z,98454.40
2023-01-31T20:17:18.591Z,98451.61
2023-01-31T20:20:24.961Z,98442.98
2023-01-31T20:23:31.656Z,98443.10
2023-01-31T20:26:37.942Z,98446.31
2023-01-31T20:29:42.446Z,98445.21
2023-01-31T20:32:48.696Z,98442.67
2023-01-31T20:35:54.990Z,98436.39
2023-01-31T20:38:59.478Z,98433.96
2023-01-31T20:42:05.955Z,98426.89
2023-01-31T20:45:13.460Z,98424.39
2023-01-31T20:48:20.115Z,98425.94
2023-01-31T20:51:26.327Z,98427.99
2023-01-31T20:54:34.071Z,98427.83
2023-01-31T20:57:40.340Z,98427.80
2023-01-31T21:00:46.616Z,98425.23
2023-01-31T21:03:52.037Z,98424.36
2023-01-31T21:06:58.337Z,98419.06
2023-01-31T21:10:02.915Z,98418.16
2023-01-31T21:13:09.841Z,98418.85
2023-01-31T21:16:17.012Z,98414.12
2023-01-31T21:19:23.204Z,98413.45
2023-01-31T21:22:31.138Z,98416.23
2023-01-31T21:25:37.413Z,98413.85
2023-01-31T21:28:43.853Z,98411.83
2023-01-31T21:31:50.136Z,98405.77
2023-01-31T21:34:54.840Z,98392.15
2023-01-31T21:38:01.100Z,98386.12
2023-01-31T21:41:25.363Z,98382.42
2023-01-31T21:44:31.665Z,98373.30
2023-01-31T21:47:56.257Z,98370.63
2023-01-31T21:51:07.257Z,98364.63
2023-01-31T21:54:13.476Z,98362.36
2023-01-31T21:57:19.717Z,98358.43
2023-01-31T22:00:24.474Z,98355.27
2023-01-31T22:03:30.787Z,98358.39
2023-01-31T22:06:38.197Z,98347.85
2023-01-31T22:09:44.584Z,98347.65
2023-01-31T22:12:49.123Z,98347.21
2023-01-31T22:15:58.752Z,98348.85
2023-01-31T22:19:04.975Z,98347.05
2023-01-31T22:22:11.251Z,98343.94
2023-01-31T22:25:17.605Z,98343.58
2023-01-31T22:28:22.164Z,98334.45
2023-01-31T22:31:29.132Z,98323.70
2023-01-31T22:34:35.543Z,98322.13
2023-01-31T22:37:40.080Z,98329.23
2023-01-31T22:40:47.008Z,98341.29
2023-01-31T22:43:54.457Z,98339.45
2023-01-31T22:47:00.716Z,98326.30
2023-01-31T22:50:08.807Z,98327.27
2023-01-31T22:53:15.111Z,98324.83
2023-01-31T22:56:20.852Z,98321.48
2023-01-31T22:59:27.080Z,98306.16
2023-01-31T23:02:32.760Z,98295.33
2023-01-31T23:05:43.728Z,98284.20
2023-01-31T23:08:50.073Z,98279.10
2023-01-31T23:11:54.620Z,98282.27
2023-01-31T23:15:00.878Z,98287.77
2023-01-31T23:18:07.779Z,98295.25
2023-01-31T23:21:16.702Z,98294.73
2023-01-31T23:24:23.067Z,98294.00
2023-01-31T23:27:29.445Z,98294.14
2023-01-31T23:30:35.767Z,98291.65
2023-01-31T23:33:40.465Z,98289.56
2023-01-31T23:36:46.751Z,98291.37
2023-01-31T23:39:51.648Z,98292.48
2023-01-31T23:42:58.189Z,98288.98
2023-01-31T23:46:04.504Z,98287.91
2023-01-31T23:49:09.109Z,98291.10
2023-01-31T23:52:15.412Z,98289.72
2023-01-31T23:55:22.689Z,98284.35
2023-01-31T23:58:29.055Z,98277.05
